Time;durP1;ratioP1;P1;durP2;ratioP2;P2;SDS_P1;SDS_P2;PMS_P1;PMS_P2;Temp;Humidity;BMP_temperature;BMP_pressure;BME280_temperature;BME280_humidity;BME280_pressure;Samples;Min_cycle;Max_cycle;Signal;HPM_P1;HPM_P2
2022/12/16 00:00:25;;;;;;;65.65;40.95;;;;;;;-0.14;63.63;100904.63;5029573;28;20056;-61
2022/12/16 00:02:50;;;;;;;72.35;43.05;;;;;;;-0.15;63.71;100897.47;5028139;28;20025;-60
2022/12/16 00:05:16;;;;;;;56.60;36.08;;;;;;;-0.13;63.18;100898.97;5029614;28;20041;-60
2022/12/16 00:07:41;;;;;;;66.20;49.50;;;;;;;-0.12;63.75;100902.56;5031728;28;20026;-61
2022/12/16 00:10:08;;;;;;;61.25;43.00;;;;;;;-0.10;63.85;100903.22;5030647;28;20064;-60
2022/12/16 00:12:33;;;;;;;63.88;41.17;;;;;;;-0.11;64.15;100888.75;5028756;28;20378;-61
2022/12/16 00:14:59;;;;;;;55.08;38.38;;;;;;;-0.09;63.57;100900.31;5030974;28;20073;-61
2022/12/16 00:17:24;;;;;;;56.88;38.25;;;;;;;-0.04;63.74;100899.75;5030412;28;20045;-61
2022/12/16 00:19:50;;;;;;;54.92;39.47;;;;;;;-0.03;63.89;100891.41;5020976;28;20116;-61
2022/12/16 00:22:15;;;;;;;52.65;37.13;;;;;;;0.03;64.05;100891.69;5031083;28;20113;-61
2022/12/16 00:24:40;;;;;;;50.72;35.42;;;;;;;0.05;63.81;100885.03;5031041;28;20469;-61
2022/12/16 00:27:06;;;;;;;54.83;36.67;;;;;;;0.07;64.39;100885.69;5028870;28;20492;-61
2022/12/16 00:29:31;;;;;;;58.53;36.83;;;;;;;0.09;64.07;100886.38;5030274;28;20029;-61
2022/12/16 00:31:56;;;;;;;54.72;35.08;;;;;;;0.11;64.12;100884.28;5030710;28;20018;-61
2022/12/16 00:34:22;;;;;;;50.25;33.78;;;;;;;0.13;64.59;100884.97;5030289;28;20080;-61
2022/12/16 00:36:47;;;;;;;54.83;33.72;;;;;;;0.13;64.08;100889.56;5025132;28;20041;-61
2022/12/16 00:39:12;;;;;;;50.95;33.42;;;;;;;0.17;64.47;100888.16;5011441;28;20033;-61
2022/12/16 00:41:38;;;;;;;49.40;33.75;;;;;;;0.20;63.86;100887.81;5030371;28;20561;-61
2022/12/16 00:44:03;;;;;;;45.95;32.58;;;;;;;0.18;64.14;100889.84;5029938;28;20048;-61
2022/12/16 00:46:29;;;;;;;47.15;31.80;;;;;;;0.22;64.42;100878.38;5025752;28;20029;-61
2022/12/16 00:48:54;;;;;;;48.35;34.03;;;;;;;0.22;64.56;100889.31;5017433;28;20115;-60
2022/12/16 00:51:19;;;;;;;50.92;33.58;;;;;;;0.24;64.46;100889.97;5029712;28;20413;-61
2022/12/16 00:53:45;;;;;;;50.25;33.78;;;;;;;0.27;64.67;100890.63;5026224;28;20043;-61
2022/12/16 00:56:17;;;;;;;45.88;32.30;;;;;;;0.28;65.27;100890.47;5011286;28;20056;-61
2022/12/16 00:58:42;;;;;;;50.42;32.45;;;;;;;0.30;64.76;100888.38;5010977;28;20033;-62
2022/12/16 01:01:08;;;;;;;46.33;31.67;;;;;;;0.29;64.68;100891.31;5019805;28;20040;-61
2022/12/16 01:03:34;;;;;;;45.65;31.65;;;;;;;0.30;64.75;100895.72;5030659;28;20030;-61
2022/12/16 01:05:59;;;;;;;46.35;30.75;;;;;;;0.33;64.45;100895.38;5028880;28;20384;-61
2022/12/16 01:08:25;;;;;;;46.80;30.77;;;;;;;0.34;65.14;100897.06;5025591;28;20029;-61
2022/12/16 01:10:53;;;;;;;49.53;32.08;;;;;;;0.34;64.89;100892.44;5027257;28;20067;-61
2022/12/16 01:13:19;;;;;;;44.35;31.17;;;;;;;0.37;65.03;100903.00;5031276;28;20060;-61
2022/12/16 01:15:44;;;;;;;45.55;31.75;;;;;;;0.37;65.00;100908.44;5029959;28;20033;-61
2022/12/16 01:18:09;;;;;;;47.85;32.42;;;;;;;0.39;64.73;100914.59;5030823;28;20026;-61
2022/12/16 01:20:35;;;;;;;41.67;30.42;;;;;;;0.42;64.88;100919.66;5023929;28;20065;-61
2022/12/16 01:23:00;;;;;;;51.13;32.40;;;;;;;0.41;64.59;100915.25;5028599;28;20071;-61
2022/12/16 01:25:25;;;;;;;45.15;30.70;;;;;;;0.43;64.77;100921.38;5030076;28;20466;-60
2022/12/16 01:27:51;;;;;;;49.65;32.35;;;;;;;0.43;65.27;100921.38;5029356;28;20033;-61
2022/12/16 01:30:16;;;;;;;47.08;31.15;;;;;;;0.45;65.52;100929.38;5029732;28;20491;-61
2022/12/16 01:32:41;;;;;;;47.33;30.58;;;;;;;0.44;65.41;100928.53;5030154;28;20025;-61
2022/12/16 01:35:07;;;;;;;41.85;30.17;;;;;;;0.44;65.60;100925.78;5028503;28;20481;-61
2022/12/16 01:37:33;;;;;;;45.85;31.25;;;;;;;0.46;65.75;100933.78;5011189;28;20056;-61
2022/12/16 01:39:58;;;;;;;43.33;29.88;;;;;;;0.45;65.46;100924.75;5010597;28;20032;-61
2022/12/16 01:42:29;;;;;;;41.53;29.42;;;;;;;0.46;65.47;100936.53;5020846;28;20041;-61
2022/12/16 01:44:55;;;;;;;46.63;30.73;;;;;;;0.49;65.79;100947.09;5030122;28;20032;-61
2022/12/16 01:47:29;;;;;;;47.20;31.25;;;;;;;0.48;65.25;100950.84;5010443;28;20117;-63
2022/12/16 01:50:03;;;;;;;48.67;32.05;;;;;;;0.50;65.00;100954.22;5022764;28;20481;-61
2022/12/16 01:52:35;;;;;;;43.80;31.80;;;;;;;0.51;64.95;100952.34;5024634;28;20508;-61
2022/12/16 01:55:14;;;;;;;47.13;32.20;;;;;;;0.49;65.08;100947.94;5021862;28;20436;-61
2022/12/16 01:57:48;;;;;;;47.40;31.70;;;;;;;0.48;64.83;100951.69;5028598;28;20116;-61
2022/12/16 02:00:13;;;;;;;45.10;30.80;;;;;;;0.49;65.23;100947.94;5027038;28;20128;-61
2022/12/16 02:02:42;;;;;;;45.38;31.95;;;;;;;0.49;64.82;100953.38;5030119;28;20156;-61
2022/12/16 02:05:21;;;;;;;50.03;31.98;;;;;;;0.52;64.86;100959.53;5029240;28;20159;-61
2022/12/16 02:08:09;;;;;;;45.80;31.55;;;;;;;0.54;64.99;100969.22;5029838;28;20477;-61
2022/12/16 02:10:41;;;;;;;48.20;31.95;;;;;;;0.54;64.84;100965.63;5021420;28;20028;-61
2022/12/16 02:13:30;;;;;;;50.58;31.88;;;;;;;0.55;65.31;100960.00;5029810;28;20144;-61
2022/12/16 02:16:17;;;;;;;48.05;31.80;;;;;;;0.55;65.11;100967.34;5029649;28;20030;-61
2022/12/16 02:18:47;;;;;;;46.33;32.20;;;;;;;0.55;65.22;100968.22;5028096;28;20103;-61
2022/12/16 02:21:37;;;;;;;49.00;33.28;;;;;;;0.53;65.03;100970.25;5028061;28;20060;-61
2022/12/16 02:24:39;;;;;;;48.78;33.80;;;;;;;0.57;65.23;100979.78;5027768;28;20033;-62
2022/12/16 02:27:20;;;;;;;47.55;32.33;;;;;;;0.53;64.79;100983.06;5014318;28;20037;-61
2022/12/16 02:30:01;;;;;;;44.92;31.52;;;;;;;0.55;65.16;100979.13;5027294;28;20555;-61
2022/12/16 02:32:59;;;;;;;48.20;32.70;;;;;;;0.55;64.78;100984.59;5028077;28;20037;-62
2022/12/16 02:35:35;;;;;;;48.25;32.85;;;;;;;0.55;65.13;100978.25;5029311;28;20045;-61
2022/12/16 02:38:27;;;;;;;47.17;34.10;;;;;;;0.55;65.13;100984.59;5028694;28;20477;-61
2022/12/16 02:41:05;;;;;;;53.50;35.40;;;;;;;0.53;65.11;100989.38;5027739;28;20052;-61
2022/12/16 02:43:49;;;;;;;51.08;33.40;;;;;;;0.55;64.98;100983.72;5028238;28;20045;-61
2022/12/16 02:46:16;;;;;;;52.95;35.17;;;;;;;0.50;65.33;100995.19;5013383;28;20177;-61
2022/12/16 02:48:41;;;;;;;47.33;34.03;;;;;;;0.52;65.01;100990.41;5027654;28;20044;-61
2022/12/16 02:51:06;;;;;;;47.90;33.83;;;;;;;0.51;65.66;100988.69;5027731;28;20371;-61
2022/12/16 02:53:34;;;;;;;54.60;36.25;;;;;;;0.52;65.42;100981.38;5027228;28;20155;-61
2022/12/16 02:56:22;;;;;;;54.85;35.80;;;;;;;0.56;65.51;100989.00;5026961;28;20095;-61
2022/12/16 02:59:04;;;;;;;50.30;35.05;;;;;;;0.57;66.02;100998.91;5028998;28;20073;-61
2022/12/16 03:02:04;;;;;;;53.40;35.63;;;;;;;0.57;66.33;100987.97;5028221;28;20078;-61
2022/12/16 03:04:41;;;;;;;52.10;35.47;;;;;;;0.56;66.31;100997.22;5027230;28;20042;-61
2022/12/16 03:07:12;;;;;;;50.65;35.72;;;;;;;0.56;66.19;100991.75;5029226;28;20109;-62
2022/12/16 03:09:38;;;;;;;51.03;35.58;;;;;;;0.57;66.18;100993.44;5031586;28;20388;-61
2022/12/16 03:12:09;;;;;;;53.83;37.70;;;;;;;0.54;66.87;101010.19;5032384;28;20030;-61
2022/12/16 03:14:39;;;;;;;56.80;38.10;;;;;;;0.50;67.27;101003.41;5031832;28;20124;-61
2022/12/16 03:17:06;;;;;;;56.45;35.63;;;;;;;0.49;67.66;101002.56;5033145;28;20032;-61
2022/12/16 03:19:32;;;;;;;54.58;36.63;;;;;;;0.50;68.04;101008.84;5030371;28;20036;-61
2022/12/16 03:22:10;;;;;;;52.70;37.00;;;;;;;0.52;68.17;101006.81;5019456;28;20033;-62
2022/12/16 03:24:36;;;;;;;55.33;37.60;;;;;;;0.50;68.44;101008.84;5031604;28;20134;-62
2022/12/16 03:27:17;;;;;;;57.05;37.65;;;;;;;0.51;68.47;101010.53;5032233;28;20144;-61
2022/12/16 03:30:03;;;;;;;53.67;37.20;;;;;;;0.53;68.55;101013.97;5030179;28;20037;-61
2022/12/16 03:32:34;;;;;;;56.63;37.53;;;;;;;0.51;69.04;101012.44;5029801;28;20076;-61
2022/12/16 03:35:12;;;;;;;56.83;39.33;;;;;;;0.51;69.44;101015.16;5030999;28;20032;-62
2022/12/16 03:37:38;;;;;;;59.55;39.90;;;;;;;0.51;68.59;101013.28;5028704;28;20140;-61
2022/12/16 03:40:10;;;;;;;55.05;38.30;;;;;;;0.48;69.02;101019.97;5022884;28;20033;-60
2022/12/16 03:42:36;;;;;;;54.30;38.15;;;;;;;0.50;68.80;101019.78;5031114;28;20033;-60
2022/12/16 03:45:05;;;;;;;57.97;38.30;;;;;;;0.49;69.10;101029.00;5030485;28;20112;-60
2022/12/16 03:47:30;;;;;;;54.17;37.55;;;;;;;0.49;68.84;101029.00;5032260;28;20112;-62
2022/12/16 03:49:56;;;;;;;55.38;38.30;;;;;;;0.51;69.61;101031.53;5030276;28;20125;-61
2022/12/16 03:52:21;;;;;;;60.08;38.60;;;;;;;0.53;69.02;101026.75;5030307;28;20021;-62
2022/12/16 03:54:50;;;;;;;57.70;39.97;;;;;;;0.53;69.48;101027.63;5030855;28;20539;-62
2022/12/16 03:57:15;;;;;;;65.05;40.13;;;;;;;0.55;69.42;101032.88;5028406;28;20393;-61
2022/12/16 03:59:40;;;;;;;57.20;39.33;;;;;;;0.58;68.89;101030.63;5032447;28;20038;-61
2022/12/16 04:02:05;;;;;;;55.95;40.63;;;;;;;0.57;69.10;101031.66;5031180;28;20040;-61
2022/12/16 04:04:31;;;;;;;60.30;39.55;;;;;;;0.60;68.97;101036.78;5031200;28;20034;-61
2022/12/16 04:09:40;;;;;;;59.17;38.78;;;;;;;0.62;69.46;101051.09;5032194;28;20071;-62
2022/12/16 04:25:56;;;;;;;60.15;37.60;;;;;;;0.72;69.92;101067.25;5028220;28;20049;-61
2022/12/16 04:28:22;;;;;;;63.75;39.08;;;;;;;0.73;70.39;101074.41;5026776;28;20056;-61
2022/12/16 04:30:47;;;;;;;62.42;37.28;;;;;;;0.76;70.35;101068.56;5016016;28;20040;-60
